sensor_id;sensor_type;location;lat;lon;timestamp;temperature;humidity
19168;DHT22;9716;53.114;18.040;2022-09-12T00:01:36;11.90;99.90
19168;DHT22;9716;53.114;18.040;2022-09-12T00:04:06;11.90;99.90
19168;DHT22;9716;53.114;18.040;2022-09-12T00:06:36;11.90;99.90
19168;DHT22;9716;53.114;18.040;2022-09-12T00:09:07;11.90;99.90
19168;DHT22;9716;53.114;18.040;2022-09-12T00:11:37;11.90;99.90
19168;DHT22;9716;53.114;18.040;2022-09-12T00:14:08;11.90;99.90
19168;DHT22;9716;53.114;18.040;2022-09-12T00:16:37;11.80;99.90
19168;DHT22;9716;53.114;18.040;2022-09-12T00:19:08;11.80;99.90
19168;DHT22;9716;53.114;18.040;2022-09-12T00:21:38;11.80;99.90
19168;DHT22;9716;53.114;18.040;2022-09-12T00:24:09;11.80;99.90
19168;DHT22;9716;53.114;18.040;2022-09-12T00:26:37;11.80;99.90
19168;DHT22;9716;53.114;18.040;2022-09-12T00:29:06;11.80;99.90
19168;DHT22;9716;53.114;18.040;2022-09-12T00:31:35;11.70;99.90
19168;DHT22;9716;53.114;18.040;2022-09-12T00:34:04;11.70;99.90
19168;DHT22;9716;53.114;18.040;2022-09-12T00:36:34;11.80;99.90
19168;DHT22;9716;53.114;18.040;2022-09-12T00:39:03;11.80;99.90
19168;DHT22;9716;53.114;18.040;2022-09-12T00:41:34;11.80;99.90
19168;DHT22;9716;53.114;18.040;2022-09-12T00:44:43;11.70;99.90
19168;DHT22;9716;53.114;18.040;2022-09-12T00:47:17;11.80;99.90
19168;DHT22;9716;53.114;18.040;2022-09-12T00:49:50;11.70;99.90
19168;DHT22;9716;53.114;18.040;2022-09-12T00:52:24;11.70;99.90
19168;DHT22;9716;53.114;18.040;2022-09-12T00:55:02;11.70;99.90
19168;DHT22;9716;53.114;18.040;2022-09-12T00:57:36;11.70;99.90
19168;DHT22;9716;53.114;18.040;2022-09-12T01:00:08;11.70;99.90
19168;DHT22;9716;53.114;18.040;2022-09-12T01:02:42;11.60;99.90
19168;DHT22;9716;53.114;18.040;2022-09-12T01:05:12;11.60;99.90
19168;DHT22;9716;53.114;18.040;2022-09-12T01:07:43;11.60;99.90
19168;DHT22;9716;53.114;18.040;2022-09-12T01:10:16;11.60;99.90
19168;DHT22;9716;53.114;18.040;2022-09-12T01:12:45;11.50;99.90
19168;DHT22;9716;53.114;18.040;2022-09-12T01:15:15;11.60;99.90
19168;DHT22;9716;53.114;18.040;2022-09-12T01:17:58;11.50;99.90
19168;DHT22;9716;53.114;18.040;2022-09-12T01:29:40;11.50;99.90
19168;DHT22;9716;53.114;18.040;2022-09-12T01:32:19;11.40;99.90
19168;DHT22;9716;53.114;18.040;2022-09-12T01:34:55;11.40;99.90
19168;DHT22;9716;53.114;18.040;2022-09-12T01:37:30;11.40;99.90
19168;DHT22;9716;53.114;18.040;2022-09-12T01:40:06;11.40;99.90
19168;DHT22;9716;53.114;18.040;2022-09-12T01:42:43;11.40;99.90
19168;DHT22;9716;53.114;18.040;2022-09-12T01:45:19;11.40;99.90
19168;DHT22;9716;53.114;18.040;2022-09-12T01:47:57;11.30;99.90
19168;DHT22;9716;53.114;18.040;2022-09-12T01:50:30;11.30;99.90
19168;DHT22;9716;53.114;18.040;2022-09-12T01:53:03;11.30;99.90
19168;DHT22;9716;53.114;18.040;2022-09-12T01:55:36;11.30;99.90
19168;DHT22;9716;53.114;18.040;2022-09-12T01:58:11;11.30;99.90
19168;DHT22;9716;53.114;18.040;2022-09-12T02:00:46;11.30;99.90
19168;DHT22;9716;53.114;18.040;2022-09-12T02:03:21;11.30;99.90
19168;DHT22;9716;53.114;18.040;2022-09-12T02:05:53;11.30;99.90
19168;DHT22;9716;53.114;18.040;2022-09-12T02:08:26;11.20;99.90
19168;DHT22;9716;53.114;18.040;2022-09-12T02:11:00;11.30;99.90
19168;DHT22;9716;53.114;18.040;2022-09-12T02:13:33;11.20;99.90
19168;DHT22;9716;53.114;18.040;2022-09-12T02:16:07;11.20;99.90
19168;DHT22;9716;53.114;18.040;2022-09-12T02:18:41;11.20;99.90
19168;DHT22;9716;53.114;18.040;2022-09-12T02:21:12;11.20;99.90
19168;DHT22;9716;53.114;18.040;2022-09-12T02:23:46;11.20;99.90
19168;DHT22;9716;53.114;18.040;2022-09-12T02:26:20;11.20;99.90
19168;DHT22;9716;53.114;18.040;2022-09-12T02:28:50;11.10;99.90
19168;DHT22;9716;53.114;18.040;2022-09-12T02:31:22;11.20;99.90
19168;DHT22;9716;53.114;18.040;2022-09-12T02:34:05;11.20;99.90
19168;DHT22;9716;53.114;18.040;2022-09-12T02:36:45;11.10;99.90
19168;DHT22;9716;53.114;18.040;2022-09-12T02:39:16;11.10;99.90
19168;DHT22;9716;53.114;18.040;2022-09-12T02:41:50;11.10;99.90
19168;DHT22;9716;53.114;18.040;2022-09-12T02:44:19;11.10;99.90
19168;DHT22;9716;53.114;18.040;2022-09-12T02:46:52;11.10;99.90
19168;DHT22;9716;53.114;18.040;2022-09-12T02:49:23;11.20;99.90
19168;DHT22;9716;53.114;18.040;2022-09-12T02:51:52;11.20;99.90
19168;DHT22;9716;53.114;18.040;2022-09-12T02:54:21;11.20;99.90
19168;DHT22;9716;53.114;18.040;2022-09-12T02:56:50;11.20;99.90
19168;DHT22;9716;53.114;18.040;2022-09-12T02:59:20;11.30;99.90
19168;DHT22;9716;53.114;18.040;2022-09-12T03:02:05;11.30;99.90
19168;DHT22;9716;53.114;18.040;2022-09-12T03:04:47;11.30;99.90
19168;DHT22;9716;53.114;18.040;2022-09-12T03:07:25;11.30;99.90
19168;DHT22;9716;53.114;18.040;2022-09-12T03:10:02;11.30;99.90
19168;DHT22;9716;53.114;18.040;2022-09-12T03:12:44;11.30;99.90
19168;DHT22;9716;53.114;18.040;2022-09-12T03:15:29;11.40;99.90
19168;DHT22;9716;53.114;18.040;2022-09-12T03:18:11;11.40;99.90
19168;DHT22;9716;53.114;18.040;2022-09-12T03:20:58;11.40;99.90
19168;DHT22;9716;53.114;18.040;2022-09-12T03:23:32;11.40;99.90
19168;DHT22;9716;53.114;18.040;2022-09-12T03:26:05;11.40;99.90
19168;DHT22;9716;53.114;18.040;2022-09-12T03:28:37;11.40;99.90
19168;DHT22;9716;53.114;18.040;2022-09-12T03:31:14;11.30;99.90
19168;DHT22;9716;53.114;18.040;2022-09-12T03:33:43;11.30;99.90
19168;DHT22;9716;53.114;18.040;2022-09-12T03:36:17;11.30;99.90
19168;DHT22;9716;53.114;18.040;2022-09-12T03:38:46;11.30;99.90
19168;DHT22;9716;53.114;18.040;2022-09-12T03:41:15;11.20;99.90
19168;DHT22;9716;53.114;18.040;2022-09-12T03:43:44;11.20;99.90
19168;DHT22;9716;53.114;18.040;2022-09-12T03:46:13;11.20;99.90
19168;DHT22;9716;53.114;18.040;2022-09-12T03:48:42;11.10;99.90
19168;DHT22;9716;53.114;18.040;2022-09-12T03:51:11;11.10;99.90
19168;DHT22;9716;53.114;18.040;2022-09-12T03:53:41;11.10;99.90
19168;DHT22;9716;53.114;18.040;2022-09-12T03:56:11;11.10;99.90
19168;DHT22;9716;53.114;18.040;2022-09-12T03:58:40;11.00;99.90
19168;DHT22;9716;53.114;18.040;2022-09-12T04:01:10;11.00;99.90
19168;DHT22;9716;53.114;18.040;2022-09-12T04:03:41;11.00;99.90
19168;DHT22;9716;53.114;18.040;2022-09-12T04:06:12;11.00;99.90
19168;DHT22;9716;53.114;18.040;2022-09-12T04:08:43;10.90;99.90
19168;DHT22;9716;53.114;18.040;2022-09-12T04:11:19;10.90;99.90
19168;DHT22;9716;53.114;18.040;2022-09-12T04:13:48;10.90;99.90
19168;DHT22;9716;53.114;18.040;2022-09-12T04:16:17;10.90;99.90
19168;DHT22;9716;53.114;18.040;2022-09-12T04:18:46;10.90;99.90
19168;DHT22;9716;53.114;18.040;2022-09-12T04:21:17;10.90;99.90
19168;DHT22;9716;53.114;18.040;2022-09-12T04:23:49;10.90;99.90
19168;DHT22;9716;53.114;18.040;2022-09-12T04:26:19;10.90;99.90
19168;DHT22;9716;53.114;18.040;2022-09-12T04:28:51;10.90;99.90
19168;DHT22;9716;53.114;18.040;2022-09-12T04:31:21;10.80;99.90
19168;DHT22;9716;53.114;18.040;2022-09-12T04:33:53;10.80;99.90
19168;DHT22;9716;53.114;18.040;2022-09-12T04:36:23;10.80;99.90
19168;DHT22;9716;53.114;18.040;2022-09-12T04:38:54;10.90;99.90
19168;DHT22;9716;53.114;18.040;2022-09-12T04:41:25;10.90;99.90
19168;DHT22;9716;53.114;18.040;2022-09-12T04:43:55;10.90;99.90
19168;DHT22;9716;53.114;18.040;2022-09-12T04:46:25;11.00;99.90
19168;DHT22;9716;53.114;18.040;2022-09-12T04:48:54;11.10;99.90
19168;DHT22;9716;53.114;18.040;2022-09-12T04:51:26;11.20;99.90
19168;DHT22;9716;53.114;18.040;2022-09-12T04:53:58;11.40;99.90
19168;DHT22;9716;53.114;18.040;2022-09-12T04:56:28;11.50;99.90
19168;DHT22;9716;53.114;18.040;2022-09-12T04:58:58;11.70;99.90
19168;DHT22;9716;53.114;18.040;2022-09-12T05:01:28;11.80;99.90
19168;DHT22;9716;53.114;18.040;2022-09-12T05:03:58;11.80;99.90
19168;DHT22;9716;53.114;18.040;2022-09-12T05:06:29;11.90;99.90
19168;DHT22;9716;53.114;18.040;2022-09-12T05:08:59;12.00;99.90
19168;DHT22;9716;53.114;18.040;2022-09-12T05:11:31;12.00;99.90
19168;DHT22;9716;53.114;18.040;2022-09-12T05:14:20;12.00;99.90
19168;DHT22;9716;53.114;18.040;2022-09-12T05:16:49;12.10;99.90
19168;DHT22;9716;53.114;18.040;2022-09-12T05:19:18;12.10;99.90
19168;DHT22;9716;53.114;18.040;2022-09-12T05:21:47;12.20;99.90
19168;DHT22;9716;53.114;18.040;2022-09-12T05:24:17;12.20;99.90
19168;DHT22;9716;53.114;18.040;2022-09-12T05:26:46;12.20;99.90
19168;DHT22;9716;53.114;18.040;2022-09-12T05:29:15;12.20;99.90
19168;DHT22;9716;53.114;18.040;2022-09-12T05:31:44;12.30;99.90
19168;DHT22;9716;53.114;18.040;2022-09-12T05:34:18;12.30;99.90
19168;DHT22;9716;53.114;18.040;2022-09-12T05:36:48;12.30;99.90
19168;DHT22;9716;53.114;18.040;2022-09-12T05:39:18;12.50;99.90
19168;DHT22;9716;53.114;18.040;2022-09-12T05:41:46;12.80;99.90
19168;DHT22;9716;53.114;18.040;2022-09-12T05:44:15;13.30;99.90
19168;DHT22;9716;53.114;18.040;2022-09-12T05:46:44;13.80;99.90
19168;DHT22;9716;53.114;18.040;2022-09-12T05:49:17;14.40;99.90
19168;DHT22;9716;53.114;18.040;2022-09-12T05:51:45;14.90;99.90
19168;DHT22;9716;53.114;18.040;2022-09-12T05:54:17;15.30;99.90
19168;DHT22;9716;53.114;18.040;2022-09-12T05:56:48;15.80;99.90
19168;DHT22;9716;53.114;18.040;2022-09-12T05:59:18;16.20;99.90
19168;DHT22;9716;53.114;18.040;2022-09-12T06:01:47;16.50;99.90
19168;DHT22;9716;53.114;18.040;2022-09-12T06:04:17;16.90;99.90
19168;DHT22;9716;53.114;18.040;2022-09-12T06:06:46;17.30;99.90
19168;DHT22;9716;53.114;18.040;2022-09-12T06:09:16;17.70;99.90
19168;DHT22;9716;53.114;18.040;2022-09-12T06:11:47;18.00;99.90
19168;DHT22;9716;53.114;18.040;2022-09-12T06:14:18;18.30;99.90
19168;DHT22;9716;53.114;18.040;2022-09-12T06:16:47;18.60;99.90
19168;DHT22;9716;53.114;18.040;2022-09-12T06:19:17;18.90;99.90
19168;DHT22;9716;53.114;18.040;2022-09-12T06:21:48;19.20;99.90
19168;DHT22;9716;53.114;18.040;2022-09-12T06:24:18;19.50;99.90
19168;DHT22;9716;53.114;18.040;2022-09-12T06:26:49;19.80;99.90
19168;DHT22;9716;53.114;18.040;2022-09-12T06:29:19;20.10;99.90
19168;DHT22;9716;53.114;18.040;2022-09-12T06:31:48;20.30;99.90
19168;DHT22;9716;53.114;18.040;2022-09-12T06:34:16;20.50;99.90
19168;DHT22;9716;53.114;18.040;2022-09-12T06:36:48;20.80;99.90
19168;DHT22;9716;53.114;18.040;2022-09-12T06:39:18;21.00;99.90
19168;DHT22;9716;53.114;18.040;2022-09-12T06:41:50;21.20;99.90
19168;DHT22;9716;53.114;18.040;2022-09-12T06:44:21;21.40;99.90
19168;DHT22;9716;53.114;18.040;2022-09-12T06:46:50;21.60;99.90
19168;DHT22;9716;53.114;18.040;2022-09-12T06:49:20;21.80;99.90
19168;DHT22;9716;53.114;18.040;2022-09-12T06:51:48;22.00;99.90
19168;DHT22;9716;53.114;18.040;2022-09-12T06:54:17;22.30;99.90
19168;DHT22;9716;53.114;18.040;2022-09-12T06:56:46;22.50;99.90
19168;DHT22;9716;53.114;18.040;2022-09-12T06:59:16;22.80;99.90
19168;DHT22;9716;53.114;18.040;2022-09-12T07:01:46;22.90;99.90
19168;DHT22;9716;53.114;18.040;2022-09-12T07:04:15;23.10;99.90
19168;DHT22;9716;53.114;18.040;2022-09-12T07:06:43;23.10;99.90
19168;DHT22;9716;53.114;18.040;2022-09-12T07:09:13;23.20;99.90
19168;DHT22;9716;53.114;18.040;2022-09-12T07:11:44;23.40;99.90
19168;DHT22;9716;53.114;18.040;2022-09-12T07:14:16;23.50;99.90
19168;DHT22;9716;53.114;18.040;2022-09-12T07:16:44;23.70;99.90
19168;DHT22;9716;53.114;18.040;2022-09-12T07:19:13;23.80;99.50
19168;DHT22;9716;53.114;18.040;2022-09-12T07:21:42;24.00;98.70
19168;DHT22;9716;53.114;18.040;2022-09-12T07:24:11;24.20;98.10
19168;DHT22;9716;53.114;18.040;2022-09-12T07:26:41;24.10;97.50
19168;DHT22;9716;53.114;18.040;2022-09-12T07:29:13;24.10;97.10
19168;DHT22;9716;53.114;18.040;2022-09-12T07:32:05;24.20;96.80
19168;DHT22;9716;53.114;18.040;2022-09-12T07:34:35;24.40;96.10
19168;DHT22;9716;53.114;18.040;2022-09-12T07:37:05;24.50;95.10
19168;DHT22;9716;53.114;18.040;2022-09-12T07:39:34;24.60;94.60
19168;DHT22;9716;53.114;18.040;2022-09-12T07:42:04;24.50;94.30
19168;DHT22;9716;53.114;18.040;2022-09-12T07:44:34;24.60;94.10
19168;DHT22;9716;53.114;18.040;2022-09-12T07:47:04;24.70;94.00
19168;DHT22;9716;53.114;18.040;2022-09-12T07:49:33;24.70;93.60
19168;DHT22;9716;53.114;18.040;2022-09-12T07:52:02;24.90;92.90
19168;DHT22;9716;53.114;18.040;2022-09-12T07:54:31;25.00;92.60
19168;DHT22;9716;53.114;18.040;2022-09-12T07:57:01;25.10;92.00
19168;DHT22;9716;53.114;18.040;2022-09-12T07:59:30;25.30;91.60
19168;DHT22;9716;53.114;18.040;2022-09-12T08:02:20;25.50;90.90
19168;DHT22;9716;53.114;18.040;2022-09-12T08:04:48;25.70;90.30
19168;DHT22;9716;53.114;18.040;2022-09-12T08:07:17;25.80;89.20
19168;DHT22;9716;53.114;18.040;2022-09-12T08:09:46;25.80;87.90
19168;DHT22;9716;53.114;18.040;2022-09-12T08:12:16;25.80;87.20
19168;DHT22;9716;53.114;18.040;2022-09-12T08:14:46;25.90;86.60
19168;DHT22;9716;53.114;18.040;2022-09-12T08:17:15;25.90;84.80
19168;DHT22;9716;53.114;18.040;2022-09-12T08:19:46;25.70;84.50
19168;DHT22;9716;53.114;18.040;2022-09-12T08:22:14;25.50;83.10
19168;DHT22;9716;53.114;18.040;2022-09-12T08:24:43;25.40;83.50
19168;DHT22;9716;53.114;18.040;2022-09-12T08:27:12;25.20;84.50
19168;DHT22;9716;53.114;18.040;2022-09-12T08:29:41;25.00;84.90
19168;DHT22;9716;53.114;18.040;2022-09-12T08:32:10;24.80;84.50
19168;DHT22;9716;53.114;18.040;2022-09-12T08:34:39;24.50;84.90
19168;DHT22;9716;53.114;18.040;2022-09-12T08:37:09;24.00;84.70
19168;DHT22;9716;53.114;18.040;2022-09-12T08:39:38;23.50;85.50
19168;DHT22;9716;53.114;18.040;2022-09-12T08:42:09;23.10;86.50
19168;DHT22;9716;53.114;18.040;2022-09-12T08:45:04;22.90;87.20
19168;DHT22;9716;53.114;18.040;2022-09-12T08:47:39;23.00;87.30
19168;DHT22;9716;53.114;18.040;2022-09-12T08:50:15;23.10;87.70
19168;DHT22;9716;53.114;18.040;2022-09-12T08:52:55;23.10;87.70
19168;DHT22;9716;53.114;18.040;2022-09-12T08:55:31;23.00;87.20
19168;DHT22;9716;53.114;18.040;2022-09-12T08:58:09;22.80;86.00
19168;DHT22;9716;53.114;18.040;2022-09-12T09:00:48;22.50;86.10
19168;DHT22;9716;53.114;18.040;2022-09-12T09:03:52;22.50;87.60
19168;DHT22;9716;53.114;18.040;2022-09-12T09:06:36;22.70;87.20
19168;DHT22;9716;53.114;18.040;2022-09-12T09:09:14;23.00;87.00
19168;DHT22;9716;53.114;18.040;2022-09-12T09:11:53;23.20;85.40
19168;DHT22;9716;53.114;18.040;2022-09-12T09:14:41;23.20;84.80
19168;DHT22;9716;53.114;18.040;2022-09-12T09:17:21;23.10;84.50
19168;DHT22;9716;53.114;18.040;2022-09-12T09:19:56;23.10;85.30
19168;DHT22;9716;53.114;18.040;2022-09-12T09:22:38;23.00;85.30
19168;DHT22;9716;53.114;18.040;2022-09-12T09:25:14;22.90;85.50
19168;DHT22;9716;53.114;18.040;2022-09-12T09:27:55;22.70;85.70
19168;DHT22;9716;53.114;18.040;2022-09-12T09:30:26;22.50;86.10
19168;DHT22;9716;53.114;18.040;2022-09-12T09:32:57;22.40;86.30
19168;DHT22;9716;53.114;18.040;2022-09-12T09:35:36;22.20;86.50
19168;DHT22;9716;53.114;18.040;2022-09-12T09:38:16;22.00;87.20
19168;DHT22;9716;53.114;18.040;2022-09-12T09:40:55;22.00;88.50
19168;DHT22;9716;53.114;18.040;2022-09-12T09:43:28;22.00;87.70
19168;DHT22;9716;53.114;18.040;2022-09-12T09:45:57;22.00;87.90
19168;DHT22;9716;53.114;18.040;2022-09-12T09:48:28;21.90;88.00
19168;DHT22;9716;53.114;18.040;2022-09-12T09:50:59;22.00;87.90
19168;DHT22;9716;53.114;18.040;2022-09-12T09:53:34;22.10;87.80
19168;DHT22;9716;53.114;18.040;2022-09-12T09:56:11;22.20;87.50
19168;DHT22;9716;53.114;18.040;2022-09-12T09:58:40;22.30;87.50
19168;DHT22;9716;53.114;18.040;2022-09-12T10:01:15;22.30;87.10
19168;DHT22;9716;53.114;18.040;2022-09-12T10:03:48;22.30;86.80
19168;DHT22;9716;53.114;18.040;2022-09-12T10:06:28;22.20;86.90
19168;DHT22;9716;53.114;18.040;2022-09-12T10:09:16;22.00;87.20
19168;DHT22;9716;53.114;18.040;2022-09-12T10:11:47;21.80;87.60
19168;DHT22;9716;53.114;18.040;2022-09-12T10:14:32;21.60;88.10
19168;DHT22;9716;53.114;18.040;2022-09-12T10:17:26;21.50;88.90
19168;DHT22;9716;53.114;18.040;2022-09-12T10:20:02;21.50;89.20
19168;DHT22;9716;53.114;18.040;2022-09-12T10:22:47;21.70;88.70
19168;DHT22;9716;53.114;18.040;2022-09-12T10:25:18;21.80;88.30
19168;DHT22;9716;53.114;18.040;2022-09-12T10:27:55;21.90;88.10
19168;DHT22;9716;53.114;18.040;2022-09-12T10:30:25;22.00;88.20
19168;DHT22;9716;53.114;18.040;2022-09-12T10:33:06;22.00;88.10
19168;DHT22;9716;53.114;18.040;2022-09-12T10:35:43;21.90;88.00
19168;DHT22;9716;53.114;18.040;2022-09-12T10:38:19;21.90;88.60
19168;DHT22;9716;53.114;18.040;2022-09-12T10:40:56;21.90;89.00
19168;DHT22;9716;53.114;18.040;2022-09-12T10:43:33;21.80;89.60
19168;DHT22;9716;53.114;18.040;2022-09-12T10:46:22;21.90;90.00
19168;DHT22;9716;53.114;18.040;2022-09-12T10:49:12;21.90;90.20
19168;DHT22;9716;53.114;18.040;2022-09-12T10:51:41;22.00;89.80
19168;DHT22;9716;53.114;18.040;2022-09-12T10:54:11;22.10;89.10
19168;DHT22;9716;53.114;18.040;2022-09-12T10:56:51;22.00;88.50
19168;DHT22;9716;53.114;18.040;2022-09-12T10:59:30;22.00;88.10
19168;DHT22;9716;53.114;18.040;2022-09-12T11:02:12;21.90;87.80
19168;DHT22;9716;53.114;18.040;2022-09-12T11:04:52;21.70;88.20
19168;DHT22;9716;53.114;18.040;2022-09-12T11:07:34;21.60;89.00
19168;DHT22;9716;53.114;18.040;2022-09-12T11:10:17;21.50;89.60
19168;DHT22;9716;53.114;18.040;2022-09-12T11:12:55;21.50;89.30
19168;DHT22;9716;53.114;18.040;2022-09-12T11:15:49;21.60;89.00
19168;DHT22;9716;53.114;18.040;2022-09-12T11:18:35;21.60;88.80
19168;DHT22;9716;53.114;18.040;2022-09-12T11:21:18;21.60;88.70
19168;DHT22;9716;53.114;18.040;2022-09-12T11:24:07;21.50;88.50
19168;DHT22;9716;53.114;18.040;2022-09-12T11:26:45;21.50;88.50
19168;DHT22;9716;53.114;18.040;2022-09-12T11:29:24;21.40;88.40
19168;DHT22;9716;53.114;18.040;2022-09-12T11:32:15;21.30;88.60
19168;DHT22;9716;53.114;18.040;2022-09-12T11:34:54;21.30;89.30
19168;DHT22;9716;53.114;18.040;2022-09-12T11:37:40;21.30;89.20
19168;DHT22;9716;53.114;18.040;2022-09-12T11:40:23;21.20;89.00
19168;DHT22;9716;53.114;18.040;2022-09-12T11:43:01;21.20;89.80
19168;DHT22;9716;53.114;18.040;2022-09-12T11:45:40;21.30;90.00
19168;DHT22;9716;53.114;18.040;2022-09-12T11:48:17;21.40;90.00
19168;DHT22;9716;53.114;18.040;2022-09-12T11:50:48;21.60;89.90
19168;DHT22;9716;53.114;18.040;2022-09-12T11:53:20;21.80;89.80
19168;DHT22;9716;53.114;18.040;2022-09-12T11:55:54;22.00;89.30
19168;DHT22;9716;53.114;18.040;2022-09-12T11:58:27;22.30;89.20
19168;DHT22;9716;53.114;18.040;2022-09-12T12:01:01;22.30;87.90
19168;DHT22;9716;53.114;18.040;2022-09-12T12:03:38;22.40;87.60
19168;DHT22;9716;53.114;18.040;2022-09-12T12:06:13;22.30;87.00
19168;DHT22;9716;53.114;18.040;2022-09-12T12:08:47;22.10;85.80
19168;DHT22;9716;53.114;18.040;2022-09-12T12:11:26;21.90;85.80
19168;DHT22;9716;53.114;18.040;2022-09-12T12:13:59;21.60;86.30
19168;DHT22;9716;53.114;18.040;2022-09-12T12:16:31;21.40;86.80
19168;DHT22;9716;53.114;18.040;2022-09-12T12:19:09;21.30;87.00
19168;DHT22;9716;53.114;18.040;2022-09-12T12:21:47;21.30;87.50
19168;DHT22;9716;53.114;18.040;2022-09-12T12:24:22;21.30;87.70
19168;DHT22;9716;53.114;18.040;2022-09-12T12:26:55;21.40;87.60
19168;DHT22;9716;53.114;18.040;2022-09-12T12:29:41;21.40;87.50
19168;DHT22;9716;53.114;18.040;2022-09-12T12:32:22;21.50;86.60
19168;DHT22;9716;53.114;18.040;2022-09-12T12:35:14;21.50;85.70
19168;DHT22;9716;53.114;18.040;2022-09-12T12:37:53;21.40;85.30
19168;DHT22;9716;53.114;18.040;2022-09-12T12:40:27;21.30;85.60
19168;DHT22;9716;53.114;18.040;2022-09-12T12:43:09;21.20;85.60
19168;DHT22;9716;53.114;18.040;2022-09-12T12:46:02;21.00;85.30
19168;DHT22;9716;53.114;18.040;2022-09-12T12:48:43;20.90;86.00
19168;DHT22;9716;53.114;18.040;2022-09-12T12:57:28;20.70;86.80
19168;DHT22;9716;53.114;18.040;2022-09-12T13:00:00;20.70;86.90
19168;DHT22;9716;53.114;18.040;2022-09-12T13:02:33;20.70;87.00
19168;DHT22;9716;53.114;18.040;2022-09-12T13:05:05;20.80;87.30
19168;DHT22;9716;53.114;18.040;2022-09-12T13:07:37;20.80;87.10
19168;DHT22;9716;53.114;18.040;2022-09-12T13:10:07;20.80;86.70
19168;DHT22;9716;53.114;18.040;2022-09-12T13:12:42;20.80;86.30
19168;DHT22;9716;53.114;18.040;2022-09-12T13:15:47;20.80;86.60
19168;DHT22;9716;53.114;18.040;2022-09-12T13:18:22;20.60;86.50
19168;DHT22;9716;53.114;18.040;2022-09-12T13:20:58;20.50;86.90
19168;DHT22;9716;53.114;18.040;2022-09-12T13:23:31;20.40;87.80
19168;DHT22;9716;53.114;18.040;2022-09-12T13:26:01;20.40;88.10
19168;DHT22;9716;53.114;18.040;2022-09-12T13:28:32;20.40;88.30
19168;DHT22;9716;53.114;18.040;2022-09-12T13:31:05;20.40;88.20
19168;DHT22;9716;53.114;18.040;2022-09-12T13:33:40;20.40;88.40
19168;DHT22;9716;53.114;18.040;2022-09-12T13:39:16;20.40;89.30
19168;DHT22;9716;53.114;18.040;2022-09-12T13:42:23;20.50;89.50
19168;DHT22;9716;53.114;18.040;2022-09-12T13:44:58;20.60;89.60
19168;DHT22;9716;53.114;18.040;2022-09-12T13:47:31;20.70;89.70
19168;DHT22;9716;53.114;18.040;2022-09-12T13:50:00;20.80;89.90
19168;DHT22;9716;53.114;18.040;2022-09-12T13:52:32;20.90;89.70
19168;DHT22;9716;53.114;18.040;2022-09-12T13:55:09;21.00;89.40
19168;DHT22;9716;53.114;18.040;2022-09-12T13:57:43;21.10;89.00
19168;DHT22;9716;53.114;18.040;2022-09-12T14:00:15;21.10;88.70
19168;DHT22;9716;53.114;18.040;2022-09-12T14:02:47;21.20;88.80
19168;DHT22;9716;53.114;18.040;2022-09-12T14:05:37;21.20;88.90
19168;DHT22;9716;53.114;18.040;2022-09-12T14:08:07;21.20;87.50
19168;DHT22;9716;53.114;18.040;2022-09-12T14:10:38;21.20;87.30
19168;DHT22;9716;53.114;18.040;2022-09-12T14:13:11;21.20;87.70
19168;DHT22;9716;53.114;18.040;2022-09-12T14:15:44;21.20;87.50
19168;DHT22;9716;53.114;18.040;2022-09-12T14:18:23;21.30;87.60
19168;DHT22;9716;53.114;18.040;2022-09-12T14:20:53;21.30;87.60
19168;DHT22;9716;53.114;18.040;2022-09-12T14:23:27;21.30;87.60
19168;DHT22;9716;53.114;18.040;2022-09-12T14:26:00;21.40;87.60
19168;DHT22;9716;53.114;18.040;2022-09-12T14:28:30;21.40;87.50
19168;DHT22;9716;53.114;18.040;2022-09-12T14:31:02;21.50;87.40
19168;DHT22;9716;53.114;18.040;2022-09-12T14:33:44;21.50;87.20
19168;DHT22;9716;53.114;18.040;2022-09-12T14:36:21;21.50;87.20
19168;DHT22;9716;53.114;18.040;2022-09-12T14:38:54;21.50;87.30
19168;DHT22;9716;53.114;18.040;2022-09-12T14:41:27;21.40;87.00
19168;DHT22;9716;53.114;18.040;2022-09-12T14:43:59;21.40;86.90
19168;DHT22;9716;53.114;18.040;2022-09-12T14:46:31;21.40;87.10
19168;DHT22;9716;53.114;18.040;2022-09-12T14:49:06;21.40;86.90
19168;DHT22;9716;53.114;18.040;2022-09-12T14:51:37;21.30;86.60
19168;DHT22;9716;53.114;18.040;2022-09-12T14:54:37;21.30;86.70
19168;DHT22;9716;53.114;18.040;2022-09-12T14:57:34;21.20;87.10
19168;DHT22;9716;53.114;18.040;2022-09-12T15:00:16;21.20;87.30
19168;DHT22;9716;53.114;18.040;2022-09-12T15:02:47;21.10;87.20
19168;DHT22;9716;53.114;18.040;2022-09-12T15:05:23;21.10;87.40
19168;DHT22;9716;53.114;18.040;2022-09-12T15:07:55;21.10;87.00
19168;DHT22;9716;53.114;18.040;2022-09-12T15:10:27;21.00;86.60
19168;DHT22;9716;53.114;18.040;2022-09-12T15:13:12;21.00;86.70
19168;DHT22;9716;53.114;18.040;2022-09-12T15:15:43;20.90;86.70
19168;DHT22;9716;53.114;18.040;2022-09-12T15:18:12;20.90;86.80
19168;DHT22;9716;53.114;18.040;2022-09-12T15:20:43;20.90;86.50
19168;DHT22;9716;53.114;18.040;2022-09-12T15:23:29;20.80;86.70
19168;DHT22;9716;53.114;18.040;2022-09-12T15:25:58;20.80;86.80
19168;DHT22;9716;53.114;18.040;2022-09-12T15:28:30;20.70;86.60
19168;DHT22;9716;53.114;18.040;2022-09-12T15:31:06;20.60;86.50
19168;DHT22;9716;53.114;18.040;2022-09-12T15:33:35;20.60;86.60
19168;DHT22;9716;53.114;18.040;2022-09-12T15:36:12;20.50;87.20
19168;DHT22;9716;53.114;18.040;2022-09-12T15:38:42;20.50;87.70
19168;DHT22;9716;53.114;18.040;2022-09-12T15:41:14;20.50;88.00
19168;DHT22;9716;53.114;18.040;2022-09-12T15:43:45;20.50;88.10
19168;DHT22;9716;53.114;18.040;2022-09-12T15:46:15;20.40;88.00
19168;DHT22;9716;53.114;18.040;2022-09-12T15:48:45;20.40;88.30
19168;DHT22;9716;53.114;18.040;2022-09-12T15:51:16;20.40;88.60
19168;DHT22;9716;53.114;18.040;2022-09-12T15:53:45;20.30;88.70
19168;DHT22;9716;53.114;18.040;2022-09-12T15:56:16;20.30;89.00
19168;DHT22;9716;53.114;18.040;2022-09-12T15:58:47;20.30;89.30
19168;DHT22;9716;53.114;18.040;2022-09-12T16:01:31;20.30;89.60
19168;DHT22;9716;53.114;18.040;2022-09-12T16:04:01;20.30;89.40
19168;DHT22;9716;53.114;18.040;2022-09-12T16:06:31;20.20;88.80
19168;DHT22;9716;53.114;18.040;2022-09-12T16:09:03;20.20;89.00
19168;DHT22;9716;53.114;18.040;2022-09-12T16:11:33;20.20;89.20
19168;DHT22;9716;53.114;18.040;2022-09-12T16:14:04;20.10;89.00
19168;DHT22;9716;53.114;18.040;2022-09-12T16:16:33;20.10;89.00
19168;DHT22;9716;53.114;18.040;2022-09-12T16:19:02;20.00;89.10
19168;DHT22;9716;53.114;18.040;2022-09-12T16:21:31;20.00;89.30
19168;DHT22;9716;53.114;18.040;2022-09-12T16:24:00;19.90;89.70
19168;DHT22;9716;53.114;18.040;2022-09-12T16:26:29;19.80;90.00
19168;DHT22;9716;53.114;18.040;2022-09-12T16:28:59;19.80;90.20
19168;DHT22;9716;53.114;18.040;2022-09-12T16:31:29;19.70;90.40